Time;durP1;ratioP1;P1;durP2;ratioP2;P2;SDS_P1;SDS_P2;PMS_P1;PMS_P2;Temp;Humidity;BMP_temperature;BMP_pressure;BME280_temperature;BME280_humidity;BME280_pressure;Samples;Min_cycle;Max_cycle;Signal;HPM_P1;HPM_P2
2021/01/27 00:04:35;;;;;;;11.25;8.90;;;;;;;1.93;76.86;100443.44;10313488;28;20101;-70
2021/01/27 00:09:36;;;;;;;9.38;8.15;;;;;;;1.96;76.82;100418.84;10315610;28;20057;-71
2021/01/27 00:14:37;;;;;;;9.85;8.85;;;;;;;1.96;76.82;100439.84;10359053;28;20057;-70
2021/01/27 00:19:39;;;;;;;10.52;9.43;;;;;;;1.94;77.23;100430.25;10329677;28;20046;-71
2021/01/27 00:24:40;;;;;;;11.57;9.63;;;;;;;2.00;77.28;100439.66;10338027;28;20046;-71
2021/01/27 00:29:41;;;;;;;12.02;10.40;;;;;;;2.04;76.76;100425.50;10354124;28;20056;-71
2021/01/27 00:34:42;;;;;;;12.20;10.80;;;;;;;2.10;76.52;100434.84;10352282;28;20137;-70
2021/01/27 00:39:44;;;;;;;11.55;10.35;;;;;;;2.01;76.80;100420.38;10315625;28;20086;-71
2021/01/27 00:44:45;;;;;;;11.45;10.32;;;;;;;1.94;77.14;100434.66;10313333;28;20063;-71
2021/01/27 00:50:01;;;;;;;13.07;10.70;;;;;;;1.90;77.26;100433.09;10315365;28;20137;-72
2021/01/27 00:55:19;;;;;;;13.57;11.25;;;;;;;1.78;77.94;100423.94;10323424;28;20061;-70
2021/01/27 01:00:23;;;;;;;12.98;10.52;;;;;;;1.73;78.13;100423.28;10309385;28;20428;-70
2021/01/27 01:05:28;;;;;;;11.88;10.77;;;;;;;1.67;78.08;100427.00;10306230;28;20092;-72
2021/01/27 01:10:31;;;;;;;13.43;12.02;;;;;;;1.63;78.41;100438.53;10306842;28;20076;-71
2021/01/27 01:15:32;;;;;;;12.82;11.45;;;;;;;1.65;78.11;100420.97;10301844;28;20058;-71
2021/01/27 01:20:33;;;;;;;13.52;12.13;;;;;;;1.57;78.43;100409.94;10305646;28;20069;-71
2021/01/27 01:25:35;;;;;;;14.80;11.20;;;;;;;1.57;78.08;100404.69;10307700;28;20080;-71
2021/01/27 01:30:42;;;;;;;14.02;11.00;;;;;;;1.70;78.07;100390.13;10299613;28;20046;-70
2021/01/27 01:35:45;;;;;;;12.90;10.75;;;;;;;1.65;77.53;100381.63;10308662;28;20056;-71
2021/01/27 01:40:58;;;;;;;13.13;11.45;;;;;;;1.77;77.29;100390.72;10308789;28;20062;-71
2021/01/27 01:46:03;;;;;;;14.25;10.25;;;;;;;1.74;77.36;100383.84;10311523;28;20054;-71
2021/01/27 01:51:32;;;;;;;11.43;10.23;;;;;;;1.73;77.30;100391.78;10322921;28;20050;-71
2021/01/27 01:56:37;;;;;;;11.18;10.07;;;;;;;1.70;76.66;100374.41;10319111;28;20292;-69
2021/01/27 02:01:42;;;;;;;11.88;10.63;;;;;;;1.54;77.54;100368.91;10298837;28;20116;-69
2021/01/27 02:06:45;;;;;;;11.95;10.75;;;;;;;1.63;77.29;100370.31;10297881;28;20042;-72
2021/01/27 02:12:24;;;;;;;12.27;9.00;;;;;;;1.78;77.21;100376.69;10333724;28;20077;-71
2021/01/27 02:17:34;;;;;;;11.57;9.70;;;;;;;1.75;76.83;100382.91;10300360;28;20058;-71
2021/01/27 02:22:48;;;;;;;11.60;9.32;;;;;;;1.61;76.96;100366.91;10301928;28;20046;-71
2021/01/27 02:27:52;;;;;;;10.38;9.38;;;;;;;1.53;77.17;100361.09;10302173;28;20256;-71
2021/01/27 02:33:24;;;;;;;14.65;9.63;;;;;;;1.52;76.75;100365.50;10303921;28;20042;-71
2021/01/27 02:38:33;;;;;;;10.65;8.48;;;;;;;1.54;77.07;100368.06;10308331;28;20065;-71
2021/01/27 02:43:39;;;;;;;10.32;7.68;;;;;;;1.58;76.43;100370.50;10318438;28;20045;-72
2021/01/27 02:48:57;;;;;;;10.20;8.13;;;;;;;1.59;76.81;100372.22;10304796;28;20054;-72
2021/01/27 02:54:12;;;;;;;8.88;7.80;;;;;;;1.58;76.65;100361.78;10307892;28;20042;-71
2021/01/27 02:59:25;;;;;;;8.95;7.97;;;;;;;1.51;77.46;100366.41;10340554;28;20047;-73
2021/01/27 03:04:33;;;;;;;9.02;7.50;;;;;;;1.47;77.03;100359.63;10303729;28;20050;-71
2021/01/27 03:09:49;;;;;;;12.07;9.00;;;;;;;1.53;77.34;100361.97;10332133;28;20069;-72
2021/01/27 03:14:50;;;;;;;;;;;;;;;1.51;77.41;100345.44;10327267;28;20060;-73
2021/01/27 03:19:58;;;;;;;9.10;7.57;;;;;;;1.55;77.31;100340.94;10344279;28;19929;-71
2021/01/27 03:25:16;;;;;;;12.73;8.90;;;;;;;1.47;77.38;100324.63;10301719;28;20355;-72
2021/01/27 03:30:17;;;;;;;9.07;7.88;;;;;;;1.51;77.17;100315.72;10308868;28;20054;-72
2021/01/27 03:35:51;;;;;;;8.43;7.53;;;;;;;1.57;76.91;100307.59;10306375;28;20074;-72
2021/01/27 03:40:58;;;;;;;9.02;6.63;;;;;;;1.68;76.70;100289.63;10307072;28;20480;-72
2021/01/27 03:46:10;;;;;;;9.35;6.25;;;;;;;1.63;76.31;100296.84;10311723;28;20057;-71
2021/01/27 03:51:14;;;;;;;10.43;7.60;;;;;;;1.51;76.48;100295.59;10311445;28;20066;-72
2021/01/27 03:56:41;;;;;;;7.93;6.82;;;;;;;1.44;76.73;100283.63;10309134;28;20390;-71
2021/01/27 04:01:54;;;;;;;6.95;6.13;;;;;;;1.42;76.51;100282.84;10310691;28;20074;-72
2021/01/27 04:06:55;;;;;;;10.27;6.95;;;;;;;1.47;76.32;100267.78;10315501;28;20501;-72
2021/01/27 04:11:57;;;;;;;8.48;7.03;;;;;;;1.46;76.33;100266.06;10310842;28;20053;-73
2021/01/27 04:16:58;;;;;;;6.75;5.85;;;;;;;1.45;76.38;100268.78;10310726;28;20125;-71
2021/01/27 04:22:00;;;;;;;10.38;7.40;;;;;;;1.53;76.08;100269.28;10321575;28;20061;-71
2021/01/27 04:27:01;;;;;;;9.10;6.55;;;;;;;1.46;75.88;100260.00;10301415;28;20074;-71
2021/01/27 04:32:02;;;;;;;7.63;5.80;;;;;;;1.48;76.10;100238.00;10303462;28;20562;-71
2021/01/27 04:37:04;;;;;;;8.18;6.20;;;;;;;1.67;75.55;100251.19;10301513;28;20114;-71
2021/01/27 04:42:09;;;;;;;7.25;5.75;;;;;;;1.59;75.24;100240.16;10312243;28;20050;-70
2021/01/27 04:47:24;;;;;;;8.25;5.53;;;;;;;1.52;75.38;100233.50;10303826;28;20618;-73
2021/01/27 04:52:50;;;;;;;6.95;5.60;;;;;;;1.53;75.46;100229.94;10310156;28;20505;-71
2021/01/27 04:58:24;;;;;;;9.95;6.53;;;;;;;1.73;75.35;100227.28;10304403;28;20109;-72
2021/01/27 05:04:10;;;;;;;9.80;5.95;;;;;;;1.80;74.62;100216.50;10302190;28;20097;-71
2021/01/27 05:09:21;;;;;;;8.25;6.30;;;;;;;1.73;74.66;100211.53;10300503;28;20134;-72
2021/01/27 05:14:24;;;;;;;7.82;6.28;;;;;;;1.64;74.85;100206.72;10305391;28;20042;-70
2021/01/27 05:19:25;;;;;;;7.53;6.15;;;;;;;1.62;74.79;100198.03;10311058;28;20056;-71
2021/01/27 05:24:27;;;;;;;8.30;6.13;;;;;;;1.53;75.46;100198.44;10309769;28;20408;-71
2021/01/27 05:29:42;;;;;;;7.57;6.53;;;;;;;1.50;75.41;100196.81;10305130;28;20208;-71
2021/01/27 05:34:45;;;;;;;10.75;7.80;;;;;;;1.67;75.02;100187.34;10306354;28;20042;-70
2021/01/27 05:39:49;;;;;;;9.02;7.43;;;;;;;1.79;74.74;100192.06;10327615;28;20164;-71
2021/01/27 05:44:51;;;;;;;7.82;6.47;;;;;;;1.86;74.00;100184.75;10327150;28;20402;-71
2021/01/27 05:49:54;;;;;;;8.20;6.28;;;;;;;1.94;73.94;100172.13;10314632;28;20051;-71
2021/01/27 05:55:07;;;;;;;9.90;6.22;;;;;;;1.87;74.02;100170.69;10336137;28;20360;-71
2021/01/27 06:00:26;;;;;;;7.13;5.38;;;;;;;1.81;74.23;100182.31;10333476;28;20077;-71
2021/01/27 06:05:39;;;;;;;7.32;5.95;;;;;;;1.89;74.02;100190.72;10308312;28;20058;-71
2021/01/27 06:10:41;;;;;;;7.45;5.97;;;;;;;1.93;73.97;100159.91;10294668;28;20113;-69
2021/01/27 06:15:43;;;;;;;8.88;6.07;;;;;;;1.94;74.88;100151.13;10292669;28;20050;-70
2021/01/27 06:20:47;;;;;;;9.50;6.50;;;;;;;2.02;75.01;100150.75;10295473;28;20130;-70
2021/01/27 06:25:51;;;;;;;8.35;6.13;;;;;;;2.04;75.39;100136.66;10297967;28;20081;-71
2021/01/27 06:31:00;;;;;;;9.27;6.45;;;;;;;1.91;76.08;100125.84;10294568;28;20042;-70
2021/01/27 06:36:13;;;;;;;7.95;6.18;;;;;;;1.80;77.30;100143.03;10294833;28;20561;-70
2021/01/27 06:41:32;;;;;;;6.82;5.97;;;;;;;1.82;78.00;100143.78;10303714;28;20050;-70
2021/01/27 06:47:17;;;;;;;7.68;6.15;;;;;;;1.90;77.53;100121.53;10280801;28;20062;-70
2021/01/27 06:52:40;;;;;;;8.10;6.50;;;;;;;1.99;77.71;100127.28;10282597;28;20056;-70
2021/01/27 06:57:57;;;;;;;8.60;6.78;;;;;;;1.78;78.48;100132.59;10279409;28;20094;-69
2021/01/27 07:03:33;;;;;;;8.27;6.90;;;;;;;1.84;78.81;100149.84;10279590;28;20109;-69
2021/01/27 07:08:55;;;;;;;8.80;6.93;;;;;;;1.91;79.02;100135.53;10283543;28;20050;-69
2021/01/27 07:14:08;;;;;;;9.43;6.63;;;;;;;2.01;78.88;100136.78;10289577;28;20149;-69
2021/01/27 07:19:09;;;;;;;10.68;7.43;;;;;;;2.11;78.84;100148.53;10298187;28;20136;-69
2021/01/27 07:24:20;;;;;;;8.73;6.68;;;;;;;2.14;78.93;100133.59;10308588;28;20050;-69
2021/01/27 07:29:34;;;;;;;8.48;7.60;;;;;;;1.85;80.03;100130.56;10308921;28;20104;-70
2021/01/27 07:34:51;;;;;;;9.82;7.30;;;;;;;1.95;80.75;100137.06;10292864;28;20046;-72
2021/01/27 07:40:11;;;;;;;17.27;9.77;;;;;;;2.14;80.16;100125.72;10301070;28;20409;-71
2021/01/27 07:45:20;;;;;;;9.48;7.68;;;;;;;2.04;80.46;100131.41;10304026;28;20061;-72
2021/01/27 07:50:23;;;;;;;11.93;7.63;;;;;;;2.05;80.51;100122.56;10320370;28;20398;-72
2021/01/27 07:55:52;;;;;;;10.27;7.47;;;;;;;1.91;81.03;100123.22;10320976;28;20126;-72
2021/01/27 08:00:54;;;;;;;9.73;7.65;;;;;;;1.87;82.03;100133.94;10304735;28;20046;-71
2021/01/27 08:06:00;;;;;;;9.05;7.18;;;;;;;1.87;82.09;100112.94;10312359;28;20532;-71
2021/01/27 08:11:14;;;;;;;10.10;7.03;;;;;;;1.98;82.05;100126.41;10311010;28;20472;-71
2021/01/27 08:16:15;;;;;;;10.73;7.35;;;;;;;2.02;82.02;100117.47;10316907;28;20038;-72
2021/01/27 08:21:28;;;;;;;48.83;14.45;;;;;;;2.09;81.91;100105.75;10342443;28;20134;-72
2021/01/27 08:26:41;;;;;;;9.10;7.22;;;;;;;1.87;82.84;100081.44;10331227;28;20042;-71
2021/01/27 08:32:22;;;;;;;12.10;8.30;;;;;;;1.85;83.23;100075.44;10316263;28;20038;-72
2021/01/27 08:37:28;;;;;;;13.32;7.82;;;;;;;1.87;83.58;100068.31;10358765;28;20129;-72
2021/01/27 08:42:39;;;;;;;11.93;7.00;;;;;;;1.80;83.79;100062.50;10351984;28;20046;-71
2021/01/27 08:47:40;;;;;;;11.93;8.15;;;;;;;1.88;83.72;100065.63;10286368;28;20053;-71
2021/01/27 08:52:43;;;;;;;12.40;8.88;;;;;;;1.74;84.53;100050.53;10325482;28;20142;-71
2021/01/27 08:58:16;;;;;;;15.02;9.15;;;;;;;2.04;83.84;100057.00;10300473;28;20053;-71
2021/01/27 09:03:49;;;;;;;8.02;6.60;;;;;;;2.17;83.42;100066.00;10309454;28;20054;-72
2021/01/27 09:08:54;;;;;;;11.10;7.88;;;;;;;2.11;83.23;100046.13;10304018;28;20074;-72
2021/01/27 09:14:06;;;;;;;10.23;8.57;;;;;;;2.10;83.31;100051.47;10312174;28;20660;-72
2021/01/27 09:19:14;;;;;;;7.35;5.45;;;;;;;2.08;83.05;100053.31;10299008;28;20053;-72
2021/01/27 09:24:27;;;;;;;8.90;5.85;;;;;;;2.14;83.68;100052.19;10300314;28;20046;-71
2021/01/27 09:29:32;;;;;;;6.95;5.63;;;;;;;2.08;83.40;100043.66;10319800;28;20422;-71
2021/01/27 09:34:33;;;;;;;7.93;5.15;;;;;;;2.14;83.64;100047.75;10306625;28;20053;-72
2021/01/27 09:39:44;;;;;;;8.55;6.47;;;;;;;1.84;84.32;100031.72;10301511;28;20065;-72
2021/01/27 09:44:54;;;;;;;9.57;7.43;;;;;;;1.80;85.30;100035.41;10301098;28;20065;-72
2021/01/27 09:49:58;;;;;;;7.03;6.43;;;;;;;1.74;86.21;100071.53;10300673;28;20054;-72
2021/01/27 09:55:20;;;;;;;8.98;6.40;;;;;;;1.74;85.93;100057.53;10300620;28;20125;-72
2021/01/27 10:00:30;;;;;;;10.00;6.95;;;;;;;1.66;86.87;100042.16;10298062;28;20580;-72
2021/01/27 10:05:34;;;;;;;7.38;6.07;;;;;;;1.89;86.28;100050.72;10302513;28;20050;-72
2021/01/27 10:10:36;;;;;;;9.68;7.07;;;;;;;1.91;86.01;100025.25;10299950;28;20425;-73
2021/01/27 10:15:38;;;;;;;7.68;6.45;;;;;;;1.98;85.20;100021.38;10297227;28;20058;-73
2021/01/27 10:20:41;;;;;;;7.70;6.22;;;;;;;1.95;85.47;100024.16;10312414;28;20406;-72
2021/01/27 10:25:44;;;;;;;7.38;6.57;;;;;;;1.92;85.22;100029.56;10305390;28;20053;-71
2021/01/27 10:30:51;;;;;;;9.73;5.95;;;;;;;2.11;85.37;100048.75;10303614;28;20042;-72
2021/01/27 10:35:53;;;;;;;181.80;38.15;;;;;;;2.08;84.60;100040.19;10315910;28;20054;-72
2021/01/27 10:41:11;;;;;;;6.47;4.57;;;;;;;1.93;84.79;100057.53;10313508;28;20409;-72
2021/01/27 10:46:27;;;;;;;7.68;5.30;;;;;;;1.88;85.17;100051.66;10317857;28;20055;-72
2021/01/27 10:51:29;;;;;;;6.88;5.20;;;;;;;2.00;84.53;100040.56;10321378;28;20108;-73
2021/01/27 10:56:31;;;;;;;8.23;5.72;;;;;;;2.03;84.92;100022.03;10322214;28;20046;-73
2021/01/27 11:01:32;;;;;;;6.43;4.90;;;;;;;2.02;84.94;100003.72;10354626;28;20052;-73
2021/01/27 11:06:34;;;;;;;10.23;7.25;;;;;;;2.20;84.15;100009.84;10325702;28;20049;-73
2021/01/27 11:11:36;;;;;;;8.18;7.07;;;;;;;2.28;84.50;99998.03;10331470;28;20046;-73
2021/01/27 11:16:37;;;;;;;7.50;6.70;;;;;;;2.26;83.68;99999.03;10324935;28;20042;-73
2021/01/27 11:21:39;;;;;;;7.15;6.55;;;;;;;2.30;83.44;99990.09;10335347;28;20046;-72
2021/01/27 11:26:41;;;;;;;10.63;9.18;;;;;;;2.17;84.15;99989.84;10304843;28;20046;-74
2021/01/27 11:31:42;;;;;;;8.70;7.80;;;;;;;2.16;84.90;99976.78;10302541;28;20051;-72
2021/01/27 11:36:44;;;;;;;8.52;7.53;;;;;;;2.22;84.69;99942.34;10308145;28;20051;-73
2021/01/27 11:41:46;;;;;;;7.47;6.40;;;;;;;2.14;84.98;99945.34;10301498;28;20058;-71
2021/01/27 11:46:48;;;;;;;8.20;7.40;;;;;;;2.19;84.57;99943.34;10307752;28;20058;-71
2021/01/27 11:51:49;;;;;;;8.30;7.28;;;;;;;2.08;84.65;99925.50;10304252;28;20050;-71
2021/01/27 11:56:51;;;;;;;9.02;7.72;;;;;;;2.07;84.66;99931.69;10300830;28;20057;-72
2021/01/27 12:01:52;;;;;;;10.70;8.35;;;;;;;2.01;85.45;99937.25;10304495;28;20066;-71
2021/01/27 12:06:54;;;;;;;8.32;7.50;;;;;;;2.01;85.05;99934.63;10298928;28;20055;-71
2021/01/27 12:11:58;;;;;;;10.65;8.07;;;;;;;1.91;85.55;99930.75;10303256;28;20112;-71
2021/01/27 12:16:59;;;;;;;7.72;7.03;;;;;;;2.06;85.66;99922.09;10296546;28;20055;-72
2021/01/27 12:22:02;;;;;;;8.40;7.53;;;;;;;2.04;84.78;99910.84;10299247;28;20105;-72
2021/01/27 12:27:04;;;;;;;8.73;7.80;;;;;;;1.99;85.29;99897.09;10306133;28;20050;-72
2021/01/27 12:32:05;;;;;;;8.77;7.97;;;;;;;2.03;85.28;99892.53;10317981;28;20050;-72
2021/01/27 12:37:07;;;;;;;11.85;8.35;;;;;;;2.01;85.47;99883.88;10314724;28;20050;-71
2021/01/27 12:42:09;;;;;;;8.85;8.05;;;;;;;2.04;85.45;99874.09;10312509;28;20057;-71
2021/01/27 12:47:17;;;;;;;10.57;8.70;;;;;;;2.12;85.51;99861.41;10313130;28;20050;-72
2021/01/27 12:52:18;;;;;;;8.32;7.53;;;;;;;2.03;85.63;99861.88;10308464;28;20053;-72
2021/01/27 12:57:19;;;;;;;10.63;8.73;;;;;;;2.08;85.71;99870.34;10313733;28;20069;-71
2021/01/27 13:02:21;;;;;;;10.40;8.77;;;;;;;1.94;86.30;99868.44;10300504;28;20773;-71
2021/01/27 13:07:22;;;;;;;9.32;8.40;;;;;;;1.98;86.24;99866.50;10311192;28;20464;-71
2021/01/27 13:12:24;;;;;;;9.95;8.95;;;;;;;2.06;86.57;99872.22;10298916;28;20501;-71
2021/01/27 13:17:26;;;;;;;10.18;9.20;;;;;;;2.01;86.06;99863.75;10317352;28;20520;-71
2021/01/27 13:22:27;;;;;;;9.32;8.52;;;;;;;2.12;86.46;99868.44;10294561;28;20661;-71
2021/01/27 13:27:29;;;;;;;8.93;8.13;;;;;;;2.08;86.58;99865.09;10293381;28;20126;-71
2021/01/27 13:32:30;;;;;;;9.18;8.30;;;;;;;2.01;86.32;99852.38;10325404;28;20070;-70
2021/01/27 13:37:31;;;;;;;9.45;8.65;;;;;;;2.07;86.44;99852.94;10315247;28;20050;-72
2021/01/27 13:42:32;;;;;;;9.15;8.23;;;;;;;2.21;86.31;99864.50;10350001;28;20526;-72
2021/01/27 13:47:35;;;;;;;10.63;9.60;;;;;;;2.22;86.46;99861.78;10310755;28;20534;-71
2021/01/27 13:52:37;;;;;;;10.48;8.52;;;;;;;2.18;86.75;99855.00;10327436;28;20054;-71
2021/01/27 13:57:38;;;;;;;8.77;7.97;;;;;;;2.06;87.24;99856.47;10347805;28;20046;-72
2021/01/27 14:02:39;;;;;;;9.57;8.68;;;;;;;2.06;87.71;99842.50;10335961;28;20050;-71
2021/01/27 14:07:41;;;;;;;8.35;7.53;;;;;;;2.23;87.30;99845.06;10309324;28;20458;-72
2021/01/27 14:12:42;;;;;;;8.63;7.82;;;;;;;2.30;86.53;99837.75;10298757;28;20062;-71
2021/01/27 14:17:44;;;;;;;7.95;7.28;;;;;;;2.15;87.14;99838.53;10296865;28;20058;-71
2021/01/27 14:22:46;;;;;;;8.85;7.95;;;;;;;1.96;88.35;99844.72;10304746;28;20106;-72
2021/01/27 14:27:49;;;;;;;9.50;8.50;;;;;;;2.07;88.84;99842.41;10296294;28;20078;-72
2021/01/27 14:32:51;;;;;;;9.65;8.65;;;;;;;2.09;88.95;99840.56;10309159;28;20058;-71
2021/01/27 14:37:53;;;;;;;8.95;8.15;;;;;;;2.16;88.72;99848.94;10311814;28;20069;-72
2021/01/27 14:42:54;;;;;;;9.20;8.07;;;;;;;2.02;89.48;99847.03;10321236;28;20046;-72
2021/01/27 14:47:55;;;;;;;9.80;8.90;;;;;;;2.00;89.76;99851.53;10302309;28;20058;-71
2021/01/27 14:52:57;;;;;;;9.32;8.52;;;;;;;1.94;89.97;99838.72;10294818;28;20114;-71
2021/01/27 14:57:58;;;;;;;11.68;10.52;;;;;;;2.03;90.28;99833.00;10302974;28;20109;-71
2021/01/27 15:03:00;;;;;;;9.48;8.68;;;;;;;2.14;89.69;99836.84;10310877;28;21097;-70
2021/01/27 15:08:03;;;;;;;10.10;9.10;;;;;;;2.07;89.90;99836.31;10300758;28;20058;-73
2021/01/27 15:13:04;;;;;;;9.77;8.85;;;;;;;2.12;89.49;99844.81;10309196;28;20587;-72
2021/01/27 15:18:06;;;;;;;8.80;8.00;;;;;;;2.08;89.88;99836.22;10306726;28;20058;-72
2021/01/27 15:23:11;;;;;;;9.45;8.52;;;;;;;2.09;90.16;99837.94;10306948;28;20060;-72
2021/01/27 15:28:12;;;;;;;10.73;8.00;;;;;;;2.19;89.55;99843.56;10305002;28;20137;-72
2021/01/27 15:33:13;;;;;;;9.85;8.20;;;;;;;2.09;90.16;99856.31;10303578;28;20059;-71
2021/01/27 15:38:15;;;;;;;7.85;7.15;;;;;;;2.07;89.78;99845.03;10313442;28;20547;-72
2021/01/27 15:43:19;;;;;;;8.18;7.40;;;;;;;2.08;89.83;99841.47;10343647;28;20081;-74
2021/01/27 15:48:20;;;;;;;7.93;7.22;;;;;;;2.05;89.99;99839.00;10330002;28;21283;-72
2021/01/27 15:53:21;;;;;;;8.30;7.47;;;;;;;2.15;89.92;99859.53;10318603;28;20129;-72
2021/01/27 15:58:23;;;;;;;7.93;7.22;;;;;;;2.05;90.46;99857.38;10313618;28;20050;-72
2021/01/27 16:03:24;;;;;;;7.40;6.80;;;;;;;2.04;90.57;99839.94;10313419;28;20054;-72
2021/01/27 16:08:26;;;;;;;8.27;7.45;;;;;;;2.07;90.41;99844.19;10316691;28;20379;-72
2021/01/27 16:13:27;;;;;;;8.45;7.65;;;;;;;2.10;89.86;99830.88;10317082;28;20054;-72
2021/01/27 16:18:28;;;;;;;10.02;9.15;;;;;;;2.19;89.78;99838.31;10320857;28;20113;-75
2021/01/27 16:23:30;;;;;;;8.90;8.10;;;;;;;2.26;88.76;99841.44;10344250;28;20046;-70
2021/01/27 16:28:32;;;;;;;9.43;8.55;;;;;;;2.33;89.17;99841.97;10306020;28;20057;-71
2021/01/27 16:33:33;;;;;;;8.90;8.10;;;;;;;2.41;88.06;99826.66;10313306;28;20069;-71
2021/01/27 16:38:34;;;;;;;9.68;8.77;;;;;;;2.33;89.06;99834.94;10321522;28;20049;-71
2021/01/27 16:43:36;;;;;;;10.00;9.10;;;;;;;2.37;89.09;99841.75;10341121;28;20567;-71
2021/01/27 16:48:37;;;;;;;12.45;9.48;;;;;;;2.33;88.56;99836.72;10305336;28;20058;-71
2021/01/27 16:53:38;;;;;;;9.57;8.68;;;;;;;2.31;88.77;99849.91;10315334;28;20222;-70
2021/01/27 16:58:40;;;;;;;11.05;10.00;;;;;;;2.28;89.38;99840.44;10298999;28;20045;-72
2021/01/27 17:03:42;;;;;;;9.95;8.95;;;;;;;2.27;89.18;99824.78;10300280;28;20468;-71
2021/01/27 17:08:46;;;;;;;10.43;9.43;;;;;;;2.26;89.53;99830.94;10293554;28;20050;-72
2021/01/27 17:13:47;;;;;;;10.20;9.30;;;;;;;2.29;89.17;99847.38;10312022;28;20172;-72
2021/01/27 17:18:49;;;;;;;10.25;9.35;;;;;;;2.35;89.57;99854.09;10299436;28;20050;-71
2021/01/27 17:24:03;;;;;;;11.65;10.55;;;;;;;2.43;89.08;99854.56;10302107;28;20061;-72
2021/01/27 17:29:06;;;;;;;11.20;10.10;;;;;;;2.43;89.01;99837.91;10311340;28;20576;-72
2021/01/27 17:34:08;;;;;;;12.27;10.90;;;;;;;2.42;89.21;99852.00;10312613;28;20057;-72
2021/01/27 17:39:11;;;;;;;12.52;11.32;;;;;;;2.42;89.49;99865.97;10298881;28;20056;-71
2021/01/27 17:44:12;;;;;;;12.55;11.25;;;;;;;2.50;89.07;99869.97;10315563;28;20516;-71
2021/01/27 17:49:14;;;;;;;12.85;11.55;;;;;;;2.54;89.24;99872.38;10305115;28;20046;-72
2021/01/27 17:54:16;;;;;;;12.10;10.95;;;;;;;2.54;88.77;99861.84;10313644;28;20497;-69
2021/01/27 17:59:17;;;;;;;10.70;9.70;;;;;;;2.58;88.51;99866.03;10298475;28;20073;-72
2021/01/27 18:04:18;;;;;;;10.60;9.50;;;;;;;2.53;88.52;99869.81;10298377;28;20050;-71
2021/01/27 18:09:20;;;;;;;12.45;11.15;;;;;;;2.41;89.05;99866.91;10297276;28;20133;-71
2021/01/27 18:14:22;;;;;;;11.77;10.57;;;;;;;2.44;89.13;99872.00;10299079;28;20136;-69
2021/01/27 18:19:23;;;;;;;12.98;11.60;;;;;;;2.47;89.35;99877.09;10301135;28;20054;-70
2021/01/27 18:24:24;;;;;;;12.25;11.10;;;;;;;2.53;88.93;99880.34;10298318;28;20062;-70
2021/01/27 18:29:25;;;;;;;12.45;10.85;;;;;;;2.45;89.04;99878.94;10279952;28;20110;-70
2021/01/27 18:34:27;;;;;;;12.93;11.73;;;;;;;2.42;89.53;99879.13;10303615;28;20145;-71
2021/01/27 18:39:28;;;;;;;13.10;11.88;;;;;;;2.44;89.53;99887.75;10299274;28;20070;-71
2021/01/27 18:44:30;;;;;;;12.85;11.50;;;;;;;2.58;89.19;99899.31;10295264;28;20054;-71
2021/01/27 18:49:31;;;;;;;13.20;11.90;;;;;;;2.50;89.40;99888.38;10308555;28;20104;-72
2021/01/27 18:54:33;;;;;;;14.82;13.35;;;;;;;2.46;89.47;99878.03;10303535;28;20120;-74
2021/01/27 18:59:34;;;;;;;13.38;12.07;;;;;;;2.51;89.88;99892.69;10318136;28;20047;-72
2021/01/27 19:04:36;;;;;;;14.82;13.23;;;;;;;2.52;90.13;99889.13;10320586;28;20117;-72
2021/01/27 19:09:37;;;;;;;20.27;14.70;;;;;;;2.59;91.93;99880.84;10304639;28;20069;-71
2021/01/27 19:14:38;;;;;;;17.10;14.45;;;;;;;2.88;90.41;99885.47;10337145;28;20038;-71
2021/01/27 19:19:40;;;;;;;15.48;13.98;;;;;;;2.80;89.56;99884.09;10342265;28;20038;-71
2021/01/27 19:24:42;;;;;;;14.85;13.35;;;;;;;2.89;89.54;99871.41;10305085;28;20047;-73
2021/01/27 19:29:44;;;;;;;21.20;19.08;;;;;;;2.87;89.07;99873.25;10302328;28;20085;-73
2021/01/27 19:34:47;;;;;;;15.30;13.75;;;;;;;2.74;89.58;99889.69;10295616;28;21201;-73
2021/01/27 19:39:49;;;;;;;16.35;14.73;;;;;;;2.72;90.21;99903.84;10311982;28;20042;-73
2021/01/27 19:44:50;;;;;;;16.65;14.98;;;;;;;2.76;89.41;99906.25;10303928;28;20062;-73
2021/01/27 19:49:51;;;;;;;14.75;13.32;;;;;;;2.77;89.55;99893.94;10302314;28;20061;-73
2021/01/27 19:54:53;;;;;;;16.25;14.57;;;;;;;2.77;89.84;99912.34;10304637;28;20050;-72
2021/01/27 19:59:54;;;;;;;19.23;16.90;;;;;;;2.83;89.70;99891.81;10308984;28;20058;-73
2021/01/27 20:04:55;;;;;;;16.63;14.02;;;;;;;2.83;89.39;99899.69;10311359;28;20112;-74
2021/01/27 20:09:57;;;;;;;19.73;17.63;;;;;;;2.83;89.14;99894.44;10300758;28;20183;-73
2021/01/27 20:14:58;;;;;;;14.95;13.32;;;;;;;2.87;89.08;99895.16;10303487;28;20129;-73
2021/01/27 20:19:59;;;;;;;16.00;14.30;;;;;;;2.83;89.02;99904.97;10301918;28;20047;-71
2021/01/27 20:25:01;;;;;;;15.98;14.27;;;;;;;2.80;89.46;99899.88;10300349;28;20133;-72
2021/01/27 20:30:06;;;;;;;19.00;16.95;;;;;;;2.93;89.03;99902.69;10303855;28;20050;-72
2021/01/27 20:35:08;;;;;;;14.18;12.15;;;;;;;2.89;89.16;99892.44;10305975;28;20050;-72
2021/01/27 20:40:11;;;;;;;22.75;20.70;;;;;;;2.92;89.13;99892.25;10302047;28;20050;-71
2021/01/27 20:45:14;;;;;;;16.38;14.48;;;;;;;2.89;89.18;99884.53;10306715;28;20070;-73
2021/01/27 20:50:17;;;;;;;16.55;14.77;;;;;;;2.79;89.91;99887.69;10324261;28;20042;-71
2021/01/27 20:55:23;;;;;;;15.35;13.45;;;;;;;2.85;90.11;99904.03;10311211;28;20492;-72
2021/01/27 21:00:28;;;;;;;13.93;12.43;;;;;;;2.90;89.60;99894.09;10303946;28;20050;-71
2021/01/27 21:05:35;;;;;;;14.18;12.75;;;;;;;2.97;89.48;99892.84;10303337;28;20050;-72
2021/01/27 21:10:38;;;;;;;16.92;15.15;;;;;;;3.02;89.19;99880.31;10303235;28;20046;-72
2021/01/27 21:15:45;;;;;;;13.40;11.95;;;;;;;3.11;89.04;99892.09;10308267;28;20061;-71
2021/01/27 21:20:48;;;;;;;14.23;12.73;;;;;;;3.06;89.11;99883.59;10300061;28;20054;-73
2021/01/27 21:25:52;;;;;;;17.80;16.10;;;;;;;3.05;89.27;99877.50;10301736;28;20054;-73
2021/01/27 21:30:53;;;;;;;15.00;13.60;;;;;;;2.99;89.48;99867.34;10305070;28;21025;-72
2021/01/27 21:35:57;;;;;;;15.25;13.68;;;;;;;3.03;89.41;99863.56;10323105;28;20046;-73
2021/01/27 21:40:59;;;;;;;15.43;13.93;;;;;;;3.02;89.71;99901.34;10308410;28;20124;-70
2021/01/27 21:46:01;;;;;;;15.43;13.70;;;;;;;2.98;89.79;99899.81;10310593;28;20072;-70
2021/01/27 21:51:03;;;;;;;14.35;12.23;;;;;;;2.94;90.20;99895.66;10341530;28;20074;-70
2021/01/27 21:56:04;;;;;;;12.38;11.18;;;;;;;2.96;90.03;99899.06;10336407;28;20054;-71
2021/01/27 22:01:05;;;;;;;14.50;12.18;;;;;;;3.06;89.73;99900.22;10311412;28;20066;-69
2021/01/27 22:06:07;;;;;;;15.25;12.70;;;;;;;3.18;89.29;99875.03;10311687;28;20055;-70
2021/01/27 22:11:09;;;;;;;12.05;10.75;;;;;;;3.15;89.31;99867.31;10308124;28;20065;-70
2021/01/27 22:16:11;;;;;;;14.13;11.90;;;;;;;3.10;89.04;99862.31;10305628;28;20042;-70
2021/01/27 22:21:12;;;;;;;12.45;10.63;;;;;;;3.12;89.87;99884.13;10300686;28;20081;-69
2021/01/27 22:26:17;;;;;;;11.20;10.13;;;;;;;3.12;89.52;99878.88;10307486;28;20066;-69
2021/01/27 22:31:19;;;;;;;9.40;8.50;;;;;;;3.15;89.41;99865.53;10305103;28;20046;-72
2021/01/27 22:36:20;;;;;;;12.32;10.85;;;;;;;3.15;89.33;99870.81;10313637;28;20042;-71
2021/01/27 22:41:38;;;;;;;10.98;9.75;;;;;;;3.15;89.62;99876.06;10299247;28;20050;-69
2021/01/27 22:46:39;;;;;;;11.82;10.63;;;;;;;3.19;89.65;99869.69;10296963;28;20050;-70
2021/01/27 22:51:41;;;;;;;11.60;10.50;;;;;;;3.12;89.32;99857.84;10299227;28;20136;-70
2021/01/27 22:56:42;;;;;;;10.75;9.75;;;;;;;3.15;89.68;99868.19;10295802;28;20101;-70
2021/01/27 23:01:46;;;;;;;11.98;10.65;;;;;;;3.10;88.99;99859.69;10282966;28;20052;-69
2021/01/27 23:06:48;;;;;;;12.30;9.60;;;;;;;3.12;89.31;99878.88;10293515;28;20402;-71
2021/01/27 23:11:49;;;;;;;11.57;10.38;;;;;;;3.15;89.34;99872.56;10296766;28;20066;-69
2021/01/27 23:16:51;;;;;;;9.73;8.82;;;;;;;3.12;89.25;99868.34;10304260;28;20648;-70
2021/01/27 23:21:53;;;;;;;10.98;9.90;;;;;;;3.24;88.82;99868.59;10285624;28;20047;-68
2021/01/27 23:26:55;;;;;;;11.77;10.02;;;;;;;3.37;88.17;99845.91;10299901;28;20047;-71
2021/01/27 23:31:56;;;;;;;10.95;9.80;;;;;;;3.31;88.09;99852.34;10296473;28;20069;-70
2021/01/27 23:37:03;;;;;;;10.85;9.63;;;;;;;3.35;87.87;99868.84;10280917;28;20046;-71